LNI1609 WAAA-WIMM
Flight info
| Callsign | LNI1609 |
|---|---|
| Flight time | N/A |
| Altitude | 34000 |
| Route | GURNI W35 PNK L504 OBDOS/N0458F360 M774 OTLAL DCT TPG A464 IRTAD DCT SAMKO R469 ASUNA/N0457F350 L762 MIBEL/N0456F360 L762 AKPAG |
| Aircraft | B739/M-SDE2E3FGHIRWXY/LB1 |
Departure
| Time | 2026-04-24 07:13 |
|---|---|
| Airport | Sultan Hasanuddin International Airport (WAAA) |
Arrival
| Time | N/A |
|---|---|
| Airport | Kualanamu International Airport (WIMM) |
| Time | Latitude | Longitude | Altitude | Speed | Heading |
|---|---|---|---|---|---|
| 2026-04-24 07:00 | -5.07859 | 119.54666 | 40 ft | 0 kts | 300° |
| 2026-04-24 07:09 | -5.07870 | 119.54701 | 47 ft | 12 kts | 254° |
| 2026-04-24 07:10 | -5.07842 | 119.54728 | 44 ft | 7 kts | 192° |
| 2026-04-24 07:10 | -5.07933 | 119.54708 | 46 ft | 15 kts | 183° |
| 2026-04-24 07:10 | -5.08020 | 119.54763 | 47 ft | 20 kts | 110° |
| 2026-04-24 07:10 | -5.08092 | 119.54836 | 47 ft | 26 kts | 170° |
| 2026-04-24 07:11 | -5.08317 | 119.54725 | 47 ft | 36 kts | 210° |
| 2026-04-24 07:11 | -5.08546 | 119.54592 | 46 ft | 39 kts | 210° |
| 2026-04-24 07:11 | -5.08795 | 119.54449 | 47 ft | 43 kts | 210° |
| 2026-04-24 07:11 | -5.09052 | 119.54301 | 46 ft | 41 kts | 208° |
| 2026-04-24 07:12 | -5.09188 | 119.54372 | 46 ft | 21 kts | 95° |
| 2026-04-24 07:12 | -5.09130 | 119.54458 | 47 ft | 0 kts | 31° |
| 2026-04-24 07:12 | -5.09127 | 119.54460 | 47 ft | 7 kts | 32° |
| 2026-04-24 07:13 | -5.08852 | 119.54619 | 47 ft | 83 kts | 30° |
| 2026-04-24 07:13 | -5.08136 | 119.55029 | 46 ft | 148 kts | 30° |
| 2026-04-24 07:13 | -5.07117 | 119.55625 | 138 ft | 189 kts | 30° |
| 2026-04-24 07:13 | -5.05918 | 119.56187 | 815 ft | 191 kts | 6° |
| 2026-04-24 07:14 | -5.04608 | 119.56062 | 1436 ft | 195 kts | 332° |
| 2026-04-24 07:14 | -5.03592 | 119.55077 | 1673 ft | 212 kts | 291° |
| 2026-04-24 07:14 | -5.03196 | 119.53640 | 2088 ft | 220 kts | 285° |
| 2026-04-24 07:14 | -5.02777 | 119.52087 | 2323 ft | 238 kts | 281° |
| 2026-04-24 07:15 | -5.02465 | 119.50421 | 2695 ft | 248 kts | 281° |
| 2026-04-24 07:15 | -5.02081 | 119.48656 | 2936 ft | 269 kts | 284° |
| 2026-04-24 07:15 | -5.01584 | 119.46812 | 3483 ft | 277 kts | 287° |
| 2026-04-24 07:15 | -5.00999 | 119.44964 | 4206 ft | 279 kts | 289° |
| 2026-04-24 07:16 | -5.00342 | 119.43120 | 4893 ft | 283 kts | 291° |
| 2026-04-24 07:16 | -4.99624 | 119.41267 | 5556 ft | 286 kts | 293° |
| 2026-04-24 07:16 | -4.98862 | 119.39415 | 6241 ft | 288 kts | 294° |
| 2026-04-24 07:16 | -4.98062 | 119.37546 | 6809 ft | 294 kts | 294° |
| 2026-04-24 07:17 | -4.97210 | 119.35616 | 7055 ft | 313 kts | 295° |
| 2026-04-24 07:17 | -4.96282 | 119.33555 | 7222 ft | 334 kts | 295° |
| 2026-04-24 07:17 | -4.95286 | 119.31378 | 7380 ft | 353 kts | 295° |
| 2026-04-24 07:17 | -4.94232 | 119.29094 | 7514 ft | 370 kts | 296° |
| 2026-04-24 07:18 | -4.93119 | 119.26701 | 7698 ft | 384 kts | 296° |
| 2026-04-24 07:18 | -4.91975 | 119.24252 | 8120 ft | 390 kts | 296° |
| 2026-04-24 07:18 | -4.90832 | 119.21811 | 8636 ft | 392 kts | 296° |
| 2026-04-24 07:18 | -4.89667 | 119.19330 | 9162 ft | 394 kts | 296° |
| 2026-04-24 07:19 | -4.88494 | 119.16832 | 9653 ft | 397 kts | 296° |
| 2026-04-24 07:19 | -4.87297 | 119.14287 | 10096 ft | 400 kts | 296° |
| 2026-04-24 07:19 | -4.86109 | 119.11761 | 10541 ft | 402 kts | 296° |
| 2026-04-24 07:19 | -4.84940 | 119.09277 | 10970 ft | 404 kts | 296° |
| 2026-04-24 07:20 | -4.84116 | 119.07526 | 11258 ft | 406 kts | 296° |
| 2026-04-24 07:20 | -4.82907 | 119.04957 | 11682 ft | 408 kts | 296° |
| 2026-04-24 07:20 | -4.81295 | 119.01531 | 12241 ft | 411 kts | 296° |
| 2026-04-24 07:20 | -4.80071 | 118.98931 | 12654 ft | 413 kts | 295° |
| 2026-04-24 07:21 | -4.79243 | 118.97172 | 12924 ft | 415 kts | 295° |
| 2026-04-24 07:21 | -4.78006 | 118.94546 | 13328 ft | 417 kts | 295° |
| 2026-04-24 07:21 | -4.76361 | 118.91051 | 13809 ft | 420 kts | 295° |
| 2026-04-24 07:21 | -4.75520 | 118.89265 | 14041 ft | 421 kts | 295° |
| 2026-04-24 07:22 | -4.74262 | 118.86595 | 14395 ft | 423 kts | 295° |
| 2026-04-24 07:22 | -4.73002 | 118.83920 | 14709 ft | 425 kts | 295° |
| 2026-04-24 07:22 | -4.71736 | 118.81231 | 15034 ft | 427 kts | 295° |
| 2026-04-24 07:22 | -4.70462 | 118.78528 | 15333 ft | 430 kts | 295° |
| 2026-04-24 07:23 | -4.69178 | 118.75803 | 15641 ft | 432 kts | 295° |
| 2026-04-24 07:23 | -4.67897 | 118.73083 | 16022 ft | 432 kts | 295° |
| 2026-04-24 07:23 | -4.66615 | 118.70364 | 16462 ft | 430 kts | 295° |
| 2026-04-24 07:23 | -4.65358 | 118.67695 | 16910 ft | 428 kts | 295° |
| 2026-04-24 07:24 | -4.64069 | 118.64962 | 17341 ft | 428 kts | 295° |
| 2026-04-24 07:24 | -4.62806 | 118.62282 | 17530 ft | 433 kts | 295° |
| 2026-04-24 07:24 | -4.61504 | 118.59521 | 17628 ft | 441 kts | 295° |
| 2026-04-24 07:24 | -4.60183 | 118.56719 | 17688 ft | 448 kts | 295° |
| 2026-04-24 07:25 | -4.58844 | 118.53881 | 17998 ft | 446 kts | 295° |
| 2026-04-24 07:25 | -4.57537 | 118.51109 | 18717 ft | 434 kts | 295° |
| 2026-04-24 07:25 | -4.56262 | 118.48405 | 19433 ft | 423 kts | 295° |
| 2026-04-24 07:25 | -4.55019 | 118.45771 | 20150 ft | 413 kts | 295° |
| 2026-04-24 07:26 | -4.53793 | 118.43170 | 20641 ft | 412 kts | 295° |
| 2026-04-24 07:26 | -4.52562 | 118.40563 | 20926 ft | 416 kts | 295° |
| 2026-04-24 07:26 | -4.51321 | 118.37933 | 21169 ft | 420 kts | 295° |
| 2026-04-24 07:26 | -4.50068 | 118.35281 | 21458 ft | 422 kts | 295° |
| 2026-04-24 07:27 | -4.48810 | 118.32615 | 21767 ft | 424 kts | 295° |
| 2026-04-24 07:27 | -4.47546 | 118.29937 | 22068 ft | 426 kts | 295° |
| 2026-04-24 07:27 | -4.46274 | 118.27243 | 22350 ft | 428 kts | 295° |
| 2026-04-24 07:27 | -4.44999 | 118.24542 | 22648 ft | 430 kts | 295° |
| 2026-04-24 07:28 | -4.43713 | 118.21820 | 22927 ft | 432 kts | 295° |
| 2026-04-24 07:28 | -4.42425 | 118.19092 | 23199 ft | 434 kts | 295° |
| 2026-04-24 07:28 | -4.41132 | 118.16355 | 23449 ft | 436 kts | 295° |
| 2026-04-24 07:28 | -4.39831 | 118.13601 | 23678 ft | 438 kts | 296° |
| 2026-04-24 07:29 | -4.38524 | 118.10835 | 23913 ft | 439 kts | 296° |
| 2026-04-24 07:29 | -4.37215 | 118.08065 | 24139 ft | 440 kts | 296° |
| 2026-04-24 07:29 | -4.35901 | 118.05284 | 24356 ft | 442 kts | 296° |
| 2026-04-24 07:29 | -4.34582 | 118.02493 | 24583 ft | 444 kts | 296° |
| 2026-04-24 07:30 | -4.33257 | 117.99688 | 24798 ft | 445 kts | 296° |
| 2026-04-24 07:30 | -4.31933 | 117.96889 | 25023 ft | 446 kts | 296° |
| 2026-04-24 07:30 | -4.30603 | 117.94076 | 25236 ft | 448 kts | 296° |
| 2026-04-24 07:30 | -4.29264 | 117.91243 | 25438 ft | 449 kts | 296° |
| 2026-04-24 07:31 | -4.27926 | 117.88413 | 25641 ft | 451 kts | 296° |
| 2026-04-24 07:31 | -4.26579 | 117.85566 | 25849 ft | 452 kts | 296° |
| 2026-04-24 07:31 | -4.25247 | 117.82749 | 26053 ft | 453 kts | 296° |
| 2026-04-24 07:31 | -4.23895 | 117.79891 | 26257 ft | 455 kts | 296° |
| 2026-04-24 07:32 | -4.22521 | 117.76986 | 26445 ft | 457 kts | 296° |
| 2026-04-24 07:32 | -4.21159 | 117.74109 | 26636 ft | 458 kts | 296° |
| 2026-04-24 07:32 | -4.19792 | 117.71219 | 26831 ft | 459 kts | 296° |
| 2026-04-24 07:32 | -4.18421 | 117.68322 | 27034 ft | 461 kts | 296° |
| 2026-04-24 07:33 | -4.17047 | 117.65419 | 27230 ft | 462 kts | 296° |
| 2026-04-24 07:33 | -4.15666 | 117.62501 | 27402 ft | 464 kts | 296° |
| 2026-04-24 07:33 | -4.14282 | 117.59578 | 27590 ft | 465 kts | 296° |
| 2026-04-24 07:33 | -4.12895 | 117.56647 | 27766 ft | 467 kts | 296° |
| 2026-04-24 07:34 | -4.11503 | 117.53709 | 27947 ft | 468 kts | 296° |
| 2026-04-24 07:34 | -4.10107 | 117.50759 | 28135 ft | 469 kts | 296° |
| 2026-04-24 07:34 | -4.08703 | 117.47794 | 28321 ft | 471 kts | 296° |
| 2026-04-24 07:34 | -4.07299 | 117.44831 | 28475 ft | 472 kts | 296° |
| 2026-04-24 07:35 | -4.05904 | 117.41885 | 28652 ft | 473 kts | 296° |
| 2026-04-24 07:35 | -4.04470 | 117.38858 | 28822 ft | 475 kts | 296° |
| 2026-04-24 07:35 | -4.03054 | 117.35870 | 29017 ft | 475 kts | 296° |
| 2026-04-24 07:35 | -4.01639 | 117.32881 | 29281 ft | 474 kts | 296° |
| 2026-04-24 07:36 | -4.00208 | 117.29860 | 29554 ft | 473 kts | 296° |
| 2026-04-24 07:36 | -3.98799 | 117.26882 | 29802 ft | 473 kts | 295° |
| 2026-04-24 07:36 | -3.97605 | 117.23805 | 29990 ft | 474 kts | 286° |
| 2026-04-24 07:36 | -3.96873 | 117.20589 | 30195 ft | 474 kts | 282° |
| 2026-04-24 07:37 | -3.96224 | 117.17351 | 30424 ft | 474 kts | 282° |
| 2026-04-24 07:37 | -3.95573 | 117.14115 | 30598 ft | 474 kts | 282° |
| 2026-04-24 07:37 | -3.94911 | 117.10878 | 30791 ft | 475 kts | 282° |
| 2026-04-24 07:37 | -3.94237 | 117.07645 | 31023 ft | 474 kts | 282° |
| 2026-04-24 07:38 | -3.93554 | 117.04413 | 31251 ft | 474 kts | 282° |
| 2026-04-24 07:38 | -3.92865 | 117.01185 | 31461 ft | 474 kts | 282° |
| 2026-04-24 07:38 | -3.92174 | 116.97958 | 31675 ft | 474 kts | 282° |
| 2026-04-24 07:38 | -3.91482 | 116.94737 | 31819 ft | 474 kts | 282° |
| 2026-04-24 07:39 | -3.90083 | 116.88219 | 31809 ft | 475 kts | 283° |
| 2026-04-24 07:39 | -3.88708 | 116.81810 | 31818 ft | 472 kts | 283° |
| 2026-04-24 07:40 | -3.87330 | 116.75381 | 31813 ft | 471 kts | 283° |
| 2026-04-24 07:40 | -3.85956 | 116.68974 | 31815 ft | 469 kts | 283° |
| 2026-04-24 07:41 | -3.84585 | 116.62585 | 31811 ft | 469 kts | 282° |
| 2026-04-24 07:41 | -3.83214 | 116.56197 | 31813 ft | 469 kts | 283° |
| 2026-04-24 07:42 | -3.81840 | 116.49801 | 31812 ft | 470 kts | 282° |
| 2026-04-24 07:42 | -3.80463 | 116.43391 | 31811 ft | 471 kts | 282° |
| 2026-04-24 07:43 | -3.79085 | 116.36977 | 31809 ft | 472 kts | 283° |
| 2026-04-24 07:43 | -3.77703 | 116.30550 | 31809 ft | 472 kts | 282° |
| 2026-04-24 07:44 | -3.76318 | 116.24108 | 31807 ft | 473 kts | 283° |
| 2026-04-24 07:44 | -3.74931 | 116.17664 | 31802 ft | 473 kts | 283° |
| 2026-04-24 07:45 | -3.73546 | 116.11230 | 31796 ft | 473 kts | 283° |
| 2026-04-24 07:45 | -3.72160 | 116.04790 | 31801 ft | 473 kts | 283° |
| 2026-04-24 07:46 | -3.70774 | 115.98353 | 31797 ft | 472 kts | 283° |
| 2026-04-24 07:46 | -3.69391 | 115.91935 | 31795 ft | 471 kts | 282° |
| 2026-04-24 07:47 | -3.68010 | 115.85528 | 31794 ft | 470 kts | 282° |
| 2026-04-24 07:47 | -3.66633 | 115.79141 | 31793 ft | 469 kts | 282° |
| 2026-04-24 07:48 | -3.65247 | 115.72714 | 31795 ft | 468 kts | 282° |
| 2026-04-24 07:48 | -3.63871 | 115.66339 | 31796 ft | 468 kts | 282° |
| 2026-04-24 07:49 | -3.62490 | 115.59942 | 31791 ft | 467 kts | 282° |
| 2026-04-24 07:49 | -3.61128 | 115.53631 | 31791 ft | 466 kts | 282° |
| 2026-04-24 07:50 | -3.59758 | 115.47289 | 31792 ft | 465 kts | 282° |
| 2026-04-24 07:50 | -3.58620 | 115.42024 | 31791 ft | 465 kts | 282° |
| 2026-04-24 07:51 | -3.57253 | 115.35698 | 31793 ft | 465 kts | 282° |
| 2026-04-24 07:51 | -3.55880 | 115.29349 | 31804 ft | 468 kts | 282° |
| 2026-04-24 07:52 | -3.54495 | 115.22943 | 31797 ft | 473 kts | 282° |
| 2026-04-24 07:52 | -3.53098 | 115.16486 | 31791 ft | 476 kts | 282° |
| 2026-04-24 07:53 | -3.51690 | 115.09983 | 31786 ft | 479 kts | 282° |
| 2026-04-24 07:53 | -3.50273 | 115.03435 | 31771 ft | 482 kts | 282° |
| 2026-04-24 07:54 | -3.48852 | 114.96876 | 31763 ft | 485 kts | 282° |
| 2026-04-24 07:54 | -3.47423 | 114.90280 | 31754 ft | 487 kts | 282° |
| 2026-04-24 07:55 | -3.45980 | 114.83619 | 31753 ft | 488 kts | 282° |
| 2026-04-24 07:55 | -3.44536 | 114.76959 | 31752 ft | 490 kts | 283° |
| 2026-04-24 07:56 | -3.42251 | 114.70558 | 31751 ft | 490 kts | 300° |
| 2026-04-24 07:56 | -3.38588 | 114.64799 | 31751 ft | 491 kts | 303° |
| 2026-04-24 07:57 | -3.34875 | 114.59003 | 31750 ft | 492 kts | 303° |
| 2026-04-24 07:57 | -3.31248 | 114.53244 | 31758 ft | 492 kts | 303° |
| 2026-04-24 07:58 | -3.27614 | 114.47436 | 31764 ft | 492 kts | 303° |
| 2026-04-24 07:58 | -3.23976 | 114.41621 | 31765 ft | 493 kts | 303° |
| 2026-04-24 07:59 | -3.20334 | 114.35806 | 31767 ft | 493 kts | 303° |
| 2026-04-24 07:59 | -3.16694 | 114.29999 | 31771 ft | 493 kts | 303° |
| 2026-04-24 08:00 | -3.13049 | 114.24185 | 31763 ft | 493 kts | 303° |
| 2026-04-24 08:00 | -3.09379 | 114.18331 | 31767 ft | 493 kts | 303° |
| 2026-04-24 08:01 | -3.05735 | 114.12519 | 31765 ft | 493 kts | 303° |
| 2026-04-24 08:01 | -3.02092 | 114.06710 | 31764 ft | 493 kts | 303° |
| 2026-04-24 08:02 | -2.98447 | 114.00898 | 31767 ft | 493 kts | 303° |
| 2026-04-24 08:02 | -2.94798 | 113.95082 | 31765 ft | 493 kts | 303° |
| 2026-04-24 08:03 | -2.91148 | 113.89265 | 31767 ft | 493 kts | 303° |
| 2026-04-24 08:03 | -2.87506 | 113.83460 | 31765 ft | 493 kts | 303° |
| 2026-04-24 08:04 | -2.83857 | 113.77645 | 31768 ft | 493 kts | 303° |
| 2026-04-24 08:04 | -2.80209 | 113.71833 | 31769 ft | 493 kts | 303° |
| 2026-04-24 08:05 | -2.76558 | 113.66017 | 31767 ft | 493 kts | 303° |
| 2026-04-24 08:05 | -2.72912 | 113.60209 | 31773 ft | 493 kts | 303° |
| 2026-04-24 08:06 | -2.69258 | 113.54390 | 31771 ft | 493 kts | 303° |
| 2026-04-24 08:06 | -2.65647 | 113.48639 | 31769 ft | 493 kts | 303° |
| 2026-04-24 08:07 | -2.61991 | 113.42817 | 31767 ft | 493 kts | 303° |
| 2026-04-24 08:07 | -2.58340 | 113.36999 | 31768 ft | 493 kts | 303° |
| 2026-04-24 08:08 | -2.54700 | 113.31184 | 31769 ft | 493 kts | 302° |
| 2026-04-24 08:09 | -2.49240 | 113.22454 | 31768 ft | 493 kts | 302° |
| 2026-04-24 08:09 | -2.45603 | 113.16643 | 31769 ft | 493 kts | 302° |
| 2026-04-24 08:10 | -2.41962 | 113.10825 | 31769 ft | 493 kts | 302° |
| 2026-04-24 08:10 | -2.38323 | 113.05012 | 31772 ft | 493 kts | 303° |
| 2026-04-24 08:11 | -2.34677 | 112.99189 | 31771 ft | 493 kts | 303° |
| 2026-04-24 08:11 | -2.31033 | 112.93369 | 31770 ft | 493 kts | 303° |
| 2026-04-24 08:12 | -2.27394 | 112.87559 | 31770 ft | 493 kts | 303° |
| 2026-04-24 08:12 | -2.23775 | 112.81779 | 31773 ft | 493 kts | 303° |
| 2026-04-24 08:13 | -2.20115 | 112.75935 | 31772 ft | 493 kts | 303° |
| 2026-04-24 08:13 | -2.16470 | 112.70116 | 31771 ft | 493 kts | 303° |
| 2026-04-24 08:14 | -2.12833 | 112.64311 | 31779 ft | 492 kts | 303° |
| 2026-04-24 08:14 | -2.09191 | 112.58499 | 31772 ft | 492 kts | 303° |
| 2026-04-24 08:15 | -2.05556 | 112.52698 | 31772 ft | 492 kts | 303° |
| 2026-04-24 08:15 | -2.01919 | 112.46895 | 31772 ft | 492 kts | 303° |
| 2026-04-24 08:16 | -1.98307 | 112.41132 | 31779 ft | 492 kts | 303° |
| 2026-04-24 08:16 | -1.94648 | 112.35294 | 31776 ft | 492 kts | 303° |
| 2026-04-24 08:17 | -1.91031 | 112.29524 | 31776 ft | 492 kts | 303° |
| 2026-04-24 08:17 | -1.87390 | 112.23717 | 31776 ft | 492 kts | 303° |
| 2026-04-24 08:18 | -1.83752 | 112.17914 | 31778 ft | 492 kts | 303° |
| 2026-04-24 08:18 | -1.80119 | 112.12121 | 31778 ft | 493 kts | 303° |
| 2026-04-24 08:19 | -1.76465 | 112.06294 | 31785 ft | 493 kts | 303° |
| 2026-04-24 08:19 | -1.72822 | 112.00485 | 31784 ft | 493 kts | 303° |
| 2026-04-24 08:20 | -1.69175 | 111.94671 | 31786 ft | 493 kts | 303° |
| 2026-04-24 08:20 | -1.65527 | 111.88855 | 31786 ft | 493 kts | 303° |
| 2026-04-24 08:21 | -1.61881 | 111.83042 | 31783 ft | 493 kts | 303° |
| 2026-04-24 08:21 | -1.58232 | 111.77226 | 31779 ft | 494 kts | 303° |
| 2026-04-24 08:22 | -1.54586 | 111.71413 | 31787 ft | 494 kts | 303° |
| 2026-04-24 08:22 | -1.51528 | 111.66538 | 31790 ft | 494 kts | 303° |
| 2026-04-24 08:23 | -1.47876 | 111.60717 | 31785 ft | 494 kts | 303° |
| 2026-04-24 08:23 | -1.44243 | 111.54942 | 31792 ft | 493 kts | 303° |
| 2026-04-24 08:24 | -1.40570 | 111.49129 | 31789 ft | 494 kts | 303° |
| 2026-04-24 08:24 | -1.36898 | 111.43318 | 31782 ft | 494 kts | 303° |
| 2026-04-24 08:25 | -1.33228 | 111.37506 | 31790 ft | 494 kts | 303° |
| 2026-04-24 08:25 | -1.29566 | 111.31703 | 31789 ft | 494 kts | 303° |
| 2026-04-24 08:26 | -1.25893 | 111.25885 | 31782 ft | 494 kts | 303° |
| 2026-04-24 08:26 | -1.22224 | 111.20072 | 31789 ft | 494 kts | 303° |
| 2026-04-24 08:27 | -1.18550 | 111.14251 | 31781 ft | 495 kts | 303° |
| 2026-04-24 08:27 | -1.14879 | 111.08437 | 31788 ft | 495 kts | 303° |
| 2026-04-24 08:28 | -1.11208 | 111.02624 | 31784 ft | 494 kts | 303° |
| 2026-04-24 08:28 | -1.07557 | 110.96841 | 31771 ft | 495 kts | 303° |
| 2026-04-24 08:29 | -1.03885 | 110.91026 | 31770 ft | 494 kts | 303° |
| 2026-04-24 08:29 | -1.00211 | 110.85207 | 31771 ft | 494 kts | 303° |
| 2026-04-24 08:30 | -0.96544 | 110.79399 | 31762 ft | 494 kts | 303° |
| 2026-04-24 08:30 | -0.92875 | 110.73589 | 31766 ft | 494 kts | 303° |
| 2026-04-24 08:31 | -0.89213 | 110.67780 | 31762 ft | 494 kts | 302° |
| 2026-04-24 08:31 | -0.85574 | 110.61951 | 31762 ft | 494 kts | 302° |
| 2026-04-24 08:32 | -0.81941 | 110.56120 | 31760 ft | 494 kts | 302° |
| 2026-04-24 08:32 | -0.78306 | 110.50289 | 31753 ft | 494 kts | 302° |
| 2026-04-24 08:33 | -0.74666 | 110.44456 | 31755 ft | 494 kts | 302° |
| 2026-04-24 08:33 | -0.71028 | 110.38627 | 31758 ft | 494 kts | 302° |
| 2026-04-24 08:34 | -0.67382 | 110.32787 | 31752 ft | 494 kts | 302° |
| 2026-04-24 08:34 | -0.63737 | 110.26946 | 31756 ft | 494 kts | 302° |
| 2026-04-24 08:35 | -0.60095 | 110.21113 | 31753 ft | 494 kts | 302° |
| 2026-04-24 08:35 | -0.56456 | 110.15283 | 31749 ft | 494 kts | 302° |
| 2026-04-24 08:36 | -0.52815 | 110.09449 | 31746 ft | 494 kts | 302° |
| 2026-04-24 08:36 | -0.49177 | 110.03622 | 31747 ft | 494 kts | 302° |
| 2026-04-24 08:37 | -0.45558 | 109.97824 | 31746 ft | 494 kts | 302° |
| 2026-04-24 08:37 | -0.41910 | 109.91981 | 31748 ft | 495 kts | 302° |
| 2026-04-24 08:38 | -0.38268 | 109.86148 | 31746 ft | 495 kts | 302° |
| 2026-04-24 08:38 | -0.34628 | 109.80317 | 31746 ft | 495 kts | 302° |
| 2026-04-24 08:39 | -0.30964 | 109.74448 | 31746 ft | 494 kts | 302° |
| 2026-04-24 08:39 | -0.27323 | 109.68616 | 31745 ft | 494 kts | 302° |
| 2026-04-24 08:40 | -0.23704 | 109.62820 | 31748 ft | 494 kts | 302° |
| 2026-04-24 08:40 | -0.20067 | 109.56993 | 31748 ft | 494 kts | 302° |
| 2026-04-24 08:41 | -0.16405 | 109.51126 | 31753 ft | 494 kts | 302° |
| 2026-04-24 08:41 | -0.12766 | 109.45297 | 31745 ft | 494 kts | 302° |
| 2026-04-24 08:42 | -0.09187 | 109.39496 | 31743 ft | 494 kts | 298° |
| 2026-04-24 08:42 | -0.06806 | 109.33079 | 31743 ft | 494 kts | 281° |
| 2026-04-24 08:43 | -0.05507 | 109.26342 | 31751 ft | 494 kts | 281° |
| 2026-04-24 08:43 | -0.04137 | 109.19605 | 31756 ft | 495 kts | 282° |
| 2026-04-24 08:44 | -0.02716 | 109.12869 | 31775 ft | 495 kts | 282° |
| 2026-04-24 08:44 | -0.01292 | 109.06137 | 31787 ft | 495 kts | 282° |
| 2026-04-24 08:45 | 0.00123 | 108.99419 | 31792 ft | 495 kts | 281° |
| 2026-04-24 08:45 | 0.01498 | 108.92685 | 31795 ft | 494 kts | 281° |
| 2026-04-24 08:46 | 0.02850 | 108.85946 | 31798 ft | 494 kts | 281° |
| 2026-04-24 08:46 | 0.04204 | 108.79213 | 31796 ft | 494 kts | 281° |
| 2026-04-24 08:47 | 0.05564 | 108.72469 | 31794 ft | 494 kts | 281° |
| 2026-04-24 08:47 | 0.06923 | 108.65749 | 31798 ft | 494 kts | 281° |
| 2026-04-24 08:48 | 0.08283 | 108.59018 | 31796 ft | 493 kts | 281° |
| 2026-04-24 08:48 | 0.09641 | 108.52299 | 31798 ft | 493 kts | 281° |
| 2026-04-24 08:49 | 0.11000 | 108.45577 | 31797 ft | 493 kts | 281° |
| 2026-04-24 08:49 | 0.12356 | 108.38864 | 31799 ft | 493 kts | 281° |
| 2026-04-24 08:50 | 0.13711 | 108.32158 | 31796 ft | 493 kts | 281° |
| 2026-04-24 08:50 | 0.15060 | 108.25481 | 31798 ft | 493 kts | 281° |
| 2026-04-24 08:51 | 0.16424 | 108.18731 | 31800 ft | 493 kts | 281° |
| 2026-04-24 08:51 | 0.17772 | 108.12059 | 31801 ft | 492 kts | 281° |
| 2026-04-24 08:52 | 0.19129 | 108.05347 | 31801 ft | 492 kts | 281° |
| 2026-04-24 08:52 | 0.20484 | 107.98636 | 31805 ft | 492 kts | 281° |
| 2026-04-24 08:53 | 0.21839 | 107.91931 | 31801 ft | 492 kts | 281° |
| 2026-04-24 08:53 | 0.23195 | 107.85222 | 31802 ft | 492 kts | 281° |
| 2026-04-24 08:54 | 0.24550 | 107.78513 | 31802 ft | 492 kts | 281° |
| 2026-04-24 08:54 | 0.25906 | 107.71802 | 31803 ft | 492 kts | 281° |
| 2026-04-24 08:55 | 0.27261 | 107.65093 | 31802 ft | 493 kts | 281° |
| 2026-04-24 08:55 | 0.28615 | 107.58388 | 31804 ft | 493 kts | 281° |
| 2026-04-24 08:56 | 0.29973 | 107.51668 | 31802 ft | 492 kts | 281° |
| 2026-04-24 08:56 | 0.31328 | 107.44957 | 31803 ft | 492 kts | 281° |
| 2026-04-24 08:57 | 0.32463 | 107.39340 | 31804 ft | 492 kts | 281° |
| 2026-04-24 08:57 | 0.33818 | 107.32634 | 31802 ft | 492 kts | 281° |
| 2026-04-24 08:58 | 0.35172 | 107.25928 | 31802 ft | 492 kts | 281° |
| 2026-04-24 08:58 | 0.36529 | 107.19210 | 31800 ft | 492 kts | 281° |
| 2026-04-24 08:59 | 0.37884 | 107.12497 | 31802 ft | 492 kts | 281° |
| 2026-04-24 08:59 | 0.39232 | 107.05825 | 31802 ft | 492 kts | 281° |
| 2026-04-24 09:00 | 0.40589 | 106.99101 | 31800 ft | 493 kts | 281° |
| 2026-04-24 09:00 | 0.41943 | 106.92395 | 31803 ft | 493 kts | 281° |
| 2026-04-24 09:01 | 0.43295 | 106.85684 | 31801 ft | 493 kts | 281° |
| 2026-04-24 09:01 | 0.44646 | 106.78972 | 31803 ft | 493 kts | 281° |
| 2026-04-24 09:02 | 0.45996 | 106.72258 | 31803 ft | 493 kts | 281° |
| 2026-04-24 09:02 | 0.47348 | 106.65543 | 31805 ft | 493 kts | 281° |
| 2026-04-24 09:03 | 0.48698 | 106.58833 | 31807 ft | 493 kts | 281° |
| 2026-04-24 09:03 | 0.50051 | 106.52107 | 31807 ft | 493 kts | 281° |
| 2026-04-24 09:04 | 0.51402 | 106.45391 | 31806 ft | 493 kts | 281° |
| 2026-04-24 09:04 | 0.52753 | 106.38672 | 31804 ft | 493 kts | 281° |
| 2026-04-24 09:05 | 0.54104 | 106.31958 | 31806 ft | 493 kts | 281° |
| 2026-04-24 09:05 | 0.55455 | 106.25241 | 31815 ft | 493 kts | 281° |
| 2026-04-24 09:06 | 0.56808 | 106.18515 | 31814 ft | 493 kts | 281° |
| 2026-04-24 09:06 | 0.58160 | 106.11792 | 31809 ft | 493 kts | 281° |
| 2026-04-24 09:07 | 0.59511 | 106.05072 | 31808 ft | 493 kts | 281° |
| 2026-04-24 09:07 | 0.61540 | 105.94985 | 31806 ft | 493 kts | 281° |
| 2026-04-24 09:08 | 0.62892 | 105.88261 | 31810 ft | 493 kts | 281° |
| 2026-04-24 09:08 | 0.64243 | 105.81538 | 31809 ft | 493 kts | 281° |
| 2026-04-24 09:09 | 0.65594 | 105.74818 | 31811 ft | 493 kts | 281° |
| 2026-04-24 09:09 | 0.66946 | 105.68091 | 31811 ft | 494 kts | 281° |
| 2026-04-24 09:10 | 0.68297 | 105.61370 | 31809 ft | 494 kts | 281° |
| 2026-04-24 09:10 | 0.69650 | 105.54639 | 31811 ft | 494 kts | 281° |
| 2026-04-24 09:11 | 0.69729 | 105.54243 | 31810 ft | 494 kts | 281° |
| 2026-04-24 09:18 | 0.70806 | 105.48891 | 31811 ft | 494 kts | 281° |
| 2026-04-24 09:19 | 0.72160 | 105.42166 | 31809 ft | 494 kts | 281° |
| 2026-04-24 09:19 | 0.73515 | 105.35439 | 31812 ft | 494 kts | 281° |
| 2026-04-24 09:20 | 0.74879 | 105.28665 | 31813 ft | 494 kts | 281° |
| 2026-04-24 09:20 | 0.76234 | 105.21929 | 31814 ft | 494 kts | 281° |
| 2026-04-24 09:21 | 0.77581 | 105.15235 | 31814 ft | 494 kts | 281° |
| 2026-04-24 09:21 | 0.78936 | 105.08505 | 31814 ft | 494 kts | 281° |
| 2026-04-24 09:22 | 0.80290 | 105.01776 | 31812 ft | 494 kts | 281° |
| 2026-04-24 09:22 | 0.81644 | 104.95042 | 31807 ft | 494 kts | 281° |
| 2026-04-24 09:23 | 0.82999 | 104.88306 | 31809 ft | 494 kts | 281° |
| 2026-04-24 09:23 | 0.84354 | 104.81573 | 31803 ft | 494 kts | 281° |
| 2026-04-24 09:24 | 0.85717 | 104.74793 | 31804 ft | 494 kts | 281° |
| 2026-04-24 09:24 | 0.87070 | 104.68067 | 31805 ft | 494 kts | 281° |
| 2026-04-24 09:25 | 0.88417 | 104.61367 | 31803 ft | 494 kts | 281° |
| 2026-04-24 09:25 | 0.89775 | 104.54647 | 31791 ft | 489 kts | 281° |
| 2026-04-24 09:26 | 0.91837 | 104.48252 | 31795 ft | 473 kts | 296° |
| 2026-04-24 09:26 | 0.94249 | 104.43429 | 31792 ft | 460 kts | 296° |
| 2026-04-24 09:27 | 0.97020 | 104.37766 | 31789 ft | 446 kts | 295° |
| 2026-04-24 09:27 | 0.99658 | 104.32255 | 31787 ft | 433 kts | 295° |
| 2026-04-24 09:28 | 1.02212 | 104.26900 | 31785 ft | 420 kts | 295° |
| 2026-04-24 09:28 | 1.04694 | 104.21719 | 31786 ft | 407 kts | 293° |
| 2026-04-24 09:29 | 1.06154 | 104.16396 | 31793 ft | 391 kts | 274° |
| 2026-04-24 09:29 | 1.06690 | 104.11076 | 31787 ft | 378 kts | 274° |
| 2026-04-24 09:30 | 1.07334 | 104.05115 | 31786 ft | 363 kts | 274° |
| 2026-04-24 09:30 | 1.07787 | 104.01015 | 31790 ft | 351 kts | 274° |
| 2026-04-24 09:31 | 1.08313 | 103.96270 | 31712 ft | 337 kts | 274° |
| 2026-04-24 09:31 | 1.08571 | 103.93954 | 31582 ft | 334 kts | 274° |
| 2026-04-24 09:31 | 1.08829 | 103.91645 | 31384 ft | 334 kts | 274° |
| 2026-04-24 09:32 | 1.09086 | 103.89335 | 31146 ft | 335 kts | 273° |